sensor_id;sensor_type;location;lat;lon;timestamp;P1;durP1;ratioP1;P2;durP2;ratioP2
67063;SDS011;58476;48.072;11.970;2024-01-25T00:01:24;4.97;;;1.30;;
67063;SDS011;58476;48.072;11.970;2024-01-25T00:03:50;3.25;;;1.38;;
67063;SDS011;58476;48.072;11.970;2024-01-25T00:06:15;4.43;;;1.10;;
67063;SDS011;58476;48.072;11.970;2024-01-25T00:08:40;3.28;;;1.17;;
67063;SDS011;58476;48.072;11.970;2024-01-25T00:11:06;4.07;;;1.27;;
67063;SDS011;58476;48.072;11.970;2024-01-25T00:13:31;2.88;;;1.08;;
67063;SDS011;58476;48.072;11.970;2024-01-25T00:15:56;3.75;;;1.10;;
67063;SDS011;58476;48.072;11.970;2024-01-25T00:18:22;4.10;;;1.10;;
67063;SDS011;58476;48.072;11.970;2024-01-25T00:20:47;3.38;;;1.20;;
67063;SDS011;58476;48.072;11.970;2024-01-25T00:23:13;3.88;;;1.15;;
67063;SDS011;58476;48.072;11.970;2024-01-25T00:25:38;5.53;;;1.23;;
67063;SDS011;58476;48.072;11.970;2024-01-25T00:28:03;5.47;;;1.70;;
67063;SDS011;58476;48.072;11.970;2024-01-25T00:30:29;5.25;;;1.40;;
67063;SDS011;58476;48.072;11.970;2024-01-25T00:32:55;3.20;;;1.25;;
67063;SDS011;58476;48.072;11.970;2024-01-25T00:35:21;3.83;;;1.17;;
67063;SDS011;58476;48.072;11.970;2024-01-25T00:37:47;5.95;;;1.15;;
67063;SDS011;58476;48.072;11.970;2024-01-25T00:40:13;4.00;;;1.30;;
67063;SDS011;58476;48.072;11.970;2024-01-25T00:42:45;3.38;;;1.23;;
67063;SDS011;58476;48.072;11.970;2024-01-25T00:45:11;5.25;;;1.42;;
67063;SDS011;58476;48.072;11.970;2024-01-25T00:47:37;3.67;;;1.23;;
67063;SDS011;58476;48.072;11.970;2024-01-25T00:50:03;3.60;;;1.25;;
67063;SDS011;58476;48.072;11.970;2024-01-25T00:52:29;4.95;;;1.30;;
67063;SDS011;58476;48.072;11.970;2024-01-25T00:54:55;4.00;;;1.40;;
67063;SDS011;58476;48.072;11.970;2024-01-25T00:57:21;3.67;;;1.10;;
67063;SDS011;58476;48.072;11.970;2024-01-25T00:59:47;2.80;;;1.20;;
67063;SDS011;58476;48.072;11.970;2024-01-25T01:02:12;2.92;;;1.08;;
67063;SDS011;58476;48.072;11.970;2024-01-25T01:04:38;3.60;;;1.23;;
67063;SDS011;58476;48.072;11.970;2024-01-25T01:07:05;2.33;;;1.00;;
67063;SDS011;58476;48.072;11.970;2024-01-25T01:09:30;3.15;;;1.10;;
67063;SDS011;58476;48.072;11.970;2024-01-25T01:11:56;2.75;;;0.93;;
67063;SDS011;58476;48.072;11.970;2024-01-25T01:14:21;3.92;;;1.48;;
67063;SDS011;58476;48.072;11.970;2024-01-25T01:16:47;2.60;;;1.17;;
67063;SDS011;58476;48.072;11.970;2024-01-25T01:19:12;4.25;;;1.30;;
67063;SDS011;58476;48.072;11.970;2024-01-25T01:21:38;2.70;;;1.30;;
67063;SDS011;58476;48.072;11.970;2024-01-25T01:24:03;3.58;;;1.30;;
67063;SDS011;58476;48.072;11.970;2024-01-25T01:26:29;3.35;;;1.20;;
67063;SDS011;58476;48.072;11.970;2024-01-25T01:28:54;2.22;;;0.90;;
67063;SDS011;58476;48.072;11.970;2024-01-25T01:31:19;3.90;;;1.50;;
67063;SDS011;58476;48.072;11.970;2024-01-25T01:33:45;4.90;;;1.30;;
67063;SDS011;58476;48.072;11.970;2024-01-25T01:36:10;3.22;;;1.10;;
67063;SDS011;58476;48.072;11.970;2024-01-25T01:38:35;4.63;;;1.92;;
67063;SDS011;58476;48.072;11.970;2024-01-25T01:41:01;4.00;;;1.58;;
67063;SDS011;58476;48.072;11.970;2024-01-25T01:43:26;4.80;;;1.25;;
67063;SDS011;58476;48.072;11.970;2024-01-25T01:45:51;2.85;;;1.30;;
67063;SDS011;58476;48.072;11.970;2024-01-25T01:48:23;3.15;;;1.35;;
67063;SDS011;58476;48.072;11.970;2024-01-25T01:50:48;4.38;;;1.10;;
67063;SDS011;58476;48.072;11.970;2024-01-25T01:53:13;7.78;;;1.70;;
67063;SDS011;58476;48.072;11.970;2024-01-25T01:55:39;3.40;;;1.20;;
67063;SDS011;58476;48.072;11.970;2024-01-25T01:58:05;3.70;;;1.45;;
67063;SDS011;58476;48.072;11.970;2024-01-25T02:00:30;2.40;;;1.05;;
67063;SDS011;58476;48.072;11.970;2024-01-25T02:02:58;2.00;;;0.98;;
67063;SDS011;58476;48.072;11.970;2024-01-25T02:05:24;4.50;;;1.60;;
67063;SDS011;58476;48.072;11.970;2024-01-25T02:07:49;3.60;;;1.20;;
67063;SDS011;58476;48.072;11.970;2024-01-25T02:10:15;3.30;;;1.38;;
67063;SDS011;58476;48.072;11.970;2024-01-25T02:12:40;3.75;;;1.30;;
67063;SDS011;58476;48.072;11.970;2024-01-25T02:15:06;4.25;;;1.30;;
67063;SDS011;58476;48.072;11.970;2024-01-25T02:17:32;4.78;;;1.40;;
67063;SDS011;58476;48.072;11.970;2024-01-25T02:19:57;2.92;;;1.10;;
67063;SDS011;58476;48.072;11.970;2024-01-25T02:22:22;4.45;;;1.20;;
67063;SDS011;58476;48.072;11.970;2024-01-25T02:24:48;2.55;;;1.10;;
67063;SDS011;58476;48.072;11.970;2024-01-25T02:27:13;5.22;;;1.55;;
67063;SDS011;58476;48.072;11.970;2024-01-25T02:29:38;2.85;;;1.25;;
67063;SDS011;58476;48.072;11.970;2024-01-25T02:32:04;2.00;;;0.95;;
67063;SDS011;58476;48.072;11.970;2024-01-25T02:34:29;2.60;;;1.15;;
67063;SDS011;58476;48.072;11.970;2024-01-25T02:36:55;4.85;;;1.58;;
67063;SDS011;58476;48.072;11.970;2024-01-25T02:39:20;2.80;;;1.13;;
67063;SDS011;58476;48.072;11.970;2024-01-25T02:41:45;2.53;;;1.23;;
67063;SDS011;58476;48.072;11.970;2024-01-25T02:44:11;2.22;;;1.10;;
67063;SDS011;58476;48.072;11.970;2024-01-25T02:46:37;3.90;;;1.20;;
67063;SDS011;58476;48.072;11.970;2024-01-25T02:49:02;4.82;;;1.08;;
67063;SDS011;58476;48.072;11.970;2024-01-25T02:51:27;5.25;;;1.40;;
67063;SDS011;58476;48.072;11.970;2024-01-25T02:53:53;4.95;;;1.45;;
67063;SDS011;58476;48.072;11.970;2024-01-25T02:56:18;2.83;;;1.20;;
67063;SDS011;58476;48.072;11.970;2024-01-25T02:58:43;4.22;;;1.23;;
67063;SDS011;58476;48.072;11.970;2024-01-25T03:01:09;5.45;;;1.35;;
67063;SDS011;58476;48.072;11.970;2024-01-25T03:03:34;3.15;;;1.13;;
67063;SDS011;58476;48.072;11.970;2024-01-25T03:05:59;4.00;;;1.30;;
67063;SDS011;58476;48.072;11.970;2024-01-25T03:08:25;5.63;;;1.58;;
67063;SDS011;58476;48.072;11.970;2024-01-25T03:10:50;4.05;;;1.30;;
67063;SDS011;58476;48.072;11.970;2024-01-25T03:13:16;4.55;;;1.17;;
67063;SDS011;58476;48.072;11.970;2024-01-25T03:15:42;3.80;;;1.50;;
67063;SDS011;58476;48.072;11.970;2024-01-25T03:18:07;4.72;;;1.30;;
67063;SDS011;58476;48.072;11.970;2024-01-25T03:20:33;4.57;;;1.15;;
67063;SDS011;58476;48.072;11.970;2024-01-25T03:22:58;2.15;;;0.95;;
67063;SDS011;58476;48.072;11.970;2024-01-25T03:25:23;2.55;;;1.30;;
67063;SDS011;58476;48.072;11.970;2024-01-25T03:27:49;5.00;;;1.50;;
67063;SDS011;58476;48.072;11.970;2024-01-25T03:30:14;3.38;;;1.40;;
67063;SDS011;58476;48.072;11.970;2024-01-25T03:32:40;3.38;;;1.20;;
67063;SDS011;58476;48.072;11.970;2024-01-25T03:35:05;3.72;;;1.40;;
67063;SDS011;58476;48.072;11.970;2024-01-25T03:37:31;2.13;;;1.05;;
67063;SDS011;58476;48.072;11.970;2024-01-25T03:39:56;4.43;;;1.38;;
67063;SDS011;58476;48.072;11.970;2024-01-25T03:42:21;3.65;;;1.38;;
67063;SDS011;58476;48.072;11.970;2024-01-25T03:44:47;2.40;;;1.08;;
67063;SDS011;58476;48.072;11.970;2024-01-25T03:47:12;4.68;;;1.30;;
67063;SDS011;58476;48.072;11.970;2024-01-25T03:49:37;4.07;;;1.35;;
67063;SDS011;58476;48.072;11.970;2024-01-25T03:52:03;7.20;;;2.58;;
67063;SDS011;58476;48.072;11.970;2024-01-25T03:54:30;8.70;;;1.95;;
67063;SDS011;58476;48.072;11.970;2024-01-25T03:56:55;3.30;;;1.20;;
67063;SDS011;58476;48.072;11.970;2024-01-25T03:59:21;3.88;;;1.27;;
67063;SDS011;58476;48.072;11.970;2024-01-25T04:01:46;1.80;;;1.05;;
67063;SDS011;58476;48.072;11.970;2024-01-25T04:04:12;2.80;;;1.20;;
67063;SDS011;58476;48.072;11.970;2024-01-25T04:06:40;3.75;;;1.35;;
67063;SDS011;58476;48.072;11.970;2024-01-25T04:09:06;3.65;;;1.30;;
67063;SDS011;58476;48.072;11.970;2024-01-25T04:11:32;3.55;;;1.23;;
67063;SDS011;58476;48.072;11.970;2024-01-25T04:13:57;2.63;;;1.33;;
67063;SDS011;58476;48.072;11.970;2024-01-25T04:16:22;3.95;;;1.15;;
67063;SDS011;58476;48.072;11.970;2024-01-25T04:18:48;4.13;;;1.30;;
67063;SDS011;58476;48.072;11.970;2024-01-25T04:21:13;4.03;;;1.30;;
67063;SDS011;58476;48.072;11.970;2024-01-25T04:23:38;4.30;;;1.20;;
67063;SDS011;58476;48.072;11.970;2024-01-25T04:26:04;6.10;;;1.92;;
67063;SDS011;58476;48.072;11.970;2024-01-25T04:28:29;3.58;;;1.10;;
67063;SDS011;58476;48.072;11.970;2024-01-25T04:30:54;3.22;;;1.20;;
67063;SDS011;58476;48.072;11.970;2024-01-25T04:33:20;1.88;;;1.00;;
67063;SDS011;58476;48.072;11.970;2024-01-25T04:35:45;4.18;;;1.10;;
67063;SDS011;58476;48.072;11.970;2024-01-25T04:38:10;3.40;;;1.42;;
67063;SDS011;58476;48.072;11.970;2024-01-25T04:40:36;11.18;;;1.52;;
67063;SDS011;58476;48.072;11.970;2024-01-25T04:43:01;8.70;;;1.80;;
67063;SDS011;58476;48.072;11.970;2024-01-25T04:45:27;4.18;;;1.52;;
67063;SDS011;58476;48.072;11.970;2024-01-25T04:47:52;4.18;;;1.27;;
67063;SDS011;58476;48.072;11.970;2024-01-25T04:50:18;4.60;;;1.00;;
67063;SDS011;58476;48.072;11.970;2024-01-25T04:52:43;4.88;;;1.25;;
67063;SDS011;58476;48.072;11.970;2024-01-25T04:55:08;4.70;;;1.48;;
67063;SDS011;58476;48.072;11.970;2024-01-25T04:57:34;4.55;;;1.30;;
67063;SDS011;58476;48.072;11.970;2024-01-25T04:59:59;4.57;;;1.48;;
67063;SDS011;58476;48.072;11.970;2024-01-25T05:02:24;6.40;;;1.50;;
67063;SDS011;58476;48.072;11.970;2024-01-25T05:04:50;5.07;;;1.40;;
67063;SDS011;58476;48.072;11.970;2024-01-25T05:07:15;5.07;;;1.25;;
67063;SDS011;58476;48.072;11.970;2024-01-25T05:09:40;8.00;;;1.20;;
67063;SDS011;58476;48.072;11.970;2024-01-25T05:12:06;3.03;;;1.40;;
67063;SDS011;58476;48.072;11.970;2024-01-25T05:14:31;7.13;;;2.33;;
67063;SDS011;58476;48.072;11.970;2024-01-25T05:16:56;12.57;;;1.33;;
67063;SDS011;58476;48.072;11.970;2024-01-25T05:19:22;8.98;;;1.50;;
67063;SDS011;58476;48.072;11.970;2024-01-25T05:21:47;6.53;;;1.40;;
67063;SDS011;58476;48.072;11.970;2024-01-25T05:24:12;9.88;;;2.08;;
67063;SDS011;58476;48.072;11.970;2024-01-25T05:26:38;6.22;;;1.40;;
67063;SDS011;58476;48.072;11.970;2024-01-25T05:29:03;19.13;;;1.63;;
67063;SDS011;58476;48.072;11.970;2024-01-25T05:31:28;6.55;;;1.33;;
67063;SDS011;58476;48.072;11.970;2024-01-25T05:33:53;10.68;;;1.40;;
67063;SDS011;58476;48.072;11.970;2024-01-25T05:36:19;5.45;;;1.60;;
67063;SDS011;58476;48.072;11.970;2024-01-25T05:38:44;8.10;;;1.38;;
67063;SDS011;58476;48.072;11.970;2024-01-25T05:41:09;8.98;;;1.50;;
67063;SDS011;58476;48.072;11.970;2024-01-25T05:43:35;6.00;;;1.02;;
67063;SDS011;58476;48.072;11.970;2024-01-25T05:46:00;4.53;;;1.17;;
67063;SDS011;58476;48.072;11.970;2024-01-25T05:48:25;8.40;;;1.90;;
67063;SDS011;58476;48.072;11.970;2024-01-25T05:50:51;5.50;;;1.20;;
67063;SDS011;58476;48.072;11.970;2024-01-25T05:53:16;7.07;;;1.63;;
67063;SDS011;58476;48.072;11.970;2024-01-25T05:55:41;6.38;;;1.27;;
67063;SDS011;58476;48.072;11.970;2024-01-25T05:58:07;4.88;;;1.35;;
67063;SDS011;58476;48.072;11.970;2024-01-25T06:00:32;5.63;;;1.60;;
67063;SDS011;58476;48.072;11.970;2024-01-25T06:02:57;3.97;;;1.27;;
67063;SDS011;58476;48.072;11.970;2024-01-25T06:05:22;5.45;;;1.30;;
67063;SDS011;58476;48.072;11.970;2024-01-25T06:07:48;6.28;;;1.58;;
67063;SDS011;58476;48.072;11.970;2024-01-25T06:10:13;7.05;;;1.42;;
67063;SDS011;58476;48.072;11.970;2024-01-25T06:12:38;5.35;;;1.33;;
67063;SDS011;58476;48.072;11.970;2024-01-25T06:15:04;11.30;;;1.40;;
67063;SDS011;58476;48.072;11.970;2024-01-25T06:17:30;4.28;;;1.23;;
67063;SDS011;58476;48.072;11.970;2024-01-25T06:19:55;4.95;;;1.85;;
67063;SDS011;58476;48.072;11.970;2024-01-25T06:22:21;10.30;;;1.42;;
67063;SDS011;58476;48.072;11.970;2024-01-25T06:24:46;11.63;;;1.30;;
67063;SDS011;58476;48.072;11.970;2024-01-25T06:27:11;7.00;;;1.95;;
67063;SDS011;58476;48.072;11.970;2024-01-25T06:29:37;5.57;;;1.25;;
67063;SDS011;58476;48.072;11.970;2024-01-25T06:32:02;9.18;;;1.70;;
67063;SDS011;58476;48.072;11.970;2024-01-25T06:34:27;5.85;;;2.40;;
67063;SDS011;58476;48.072;11.970;2024-01-25T06:36:53;4.75;;;1.30;;
67063;SDS011;58476;48.072;11.970;2024-01-25T06:39:18;3.70;;;1.02;;
67063;SDS011;58476;48.072;11.970;2024-01-25T06:41:44;6.25;;;1.40;;
67063;SDS011;58476;48.072;11.970;2024-01-25T06:44:40;5.70;;;1.42;;
67063;SDS011;58476;48.072;11.970;2024-01-25T06:47:05;4.35;;;1.30;;
67063;SDS011;58476;48.072;11.970;2024-01-25T06:49:30;8.77;;;1.20;;
67063;SDS011;58476;48.072;11.970;2024-01-25T06:51:55;24.90;;;2.45;;
67063;SDS011;58476;48.072;11.970;2024-01-25T06:54:21;8.68;;;1.70;;
67063;SDS011;58476;48.072;11.970;2024-01-25T06:56:46;7.95;;;1.38;;
67063;SDS011;58476;48.072;11.970;2024-01-25T06:59:11;4.57;;;1.25;;
67063;SDS011;58476;48.072;11.970;2024-01-25T07:01:37;12.02;;;1.42;;
67063;SDS011;58476;48.072;11.970;2024-01-25T07:04:02;6.30;;;1.38;;
67063;SDS011;58476;48.072;11.970;2024-01-25T07:06:27;4.22;;;1.42;;
67063;SDS011;58476;48.072;11.970;2024-01-25T07:08:53;9.32;;;1.58;;
67063;SDS011;58476;48.072;11.970;2024-01-25T07:11:18;5.18;;;1.50;;
67063;SDS011;58476;48.072;11.970;2024-01-25T07:13:43;7.32;;;1.40;;
67063;SDS011;58476;48.072;11.970;2024-01-25T07:16:08;5.97;;;1.50;;
67063;SDS011;58476;48.072;11.970;2024-01-25T07:18:34;8.32;;;1.70;;
67063;SDS011;58476;48.072;11.970;2024-01-25T07:20:59;3.13;;;1.30;;
67063;SDS011;58476;48.072;11.970;2024-01-25T07:23:24;7.78;;;1.83;;
67063;SDS011;58476;48.072;11.970;2024-01-25T07:25:50;5.22;;;1.33;;
67063;SDS011;58476;48.072;11.970;2024-01-25T07:28:15;5.15;;;1.30;;
67063;SDS011;58476;48.072;11.970;2024-01-25T07:30:44;12.48;;;2.20;;
67063;SDS011;58476;48.072;11.970;2024-01-25T07:33:11;18.10;;;2.25;;
67063;SDS011;58476;48.072;11.970;2024-01-25T07:35:37;7.95;;;1.70;;
67063;SDS011;58476;48.072;11.970;2024-01-25T07:38:02;16.40;;;2.05;;
67063;SDS011;58476;48.072;11.970;2024-01-25T07:40:28;23.40;;;2.40;;
67063;SDS011;58476;48.072;11.970;2024-01-25T07:42:53;12.50;;;1.80;;
67063;SDS011;58476;48.072;11.970;2024-01-25T07:45:18;16.75;;;2.38;;
67063;SDS011;58476;48.072;11.970;2024-01-25T07:47:43;12.38;;;2.00;;
67063;SDS011;58476;48.072;11.970;2024-01-25T07:50:09;8.18;;;2.50;;
67063;SDS011;58476;48.072;11.970;2024-01-25T07:52:35;15.48;;;2.22;;
67063;SDS011;58476;48.072;11.970;2024-01-25T07:55:00;20.70;;;1.92;;
67063;SDS011;58476;48.072;11.970;2024-01-25T07:57:25;12.57;;;2.42;;
67063;SDS011;58476;48.072;11.970;2024-01-25T07:59:51;7.88;;;2.13;;
67063;SDS011;58476;48.072;11.970;2024-01-25T08:02:16;14.43;;;2.20;;
67063;SDS011;58476;48.072;11.970;2024-01-25T08:04:41;9.05;;;2.67;;
67063;SDS011;58476;48.072;11.970;2024-01-25T08:07:07;14.90;;;2.83;;
67063;SDS011;58476;48.072;11.970;2024-01-25T08:09:32;7.78;;;1.88;;
67063;SDS011;58476;48.072;11.970;2024-01-25T08:11:57;11.45;;;2.15;;
67063;SDS011;58476;48.072;11.970;2024-01-25T08:14:22;14.18;;;2.33;;
67063;SDS011;58476;48.072;11.970;2024-01-25T08:16:48;10.27;;;1.90;;
67063;SDS011;58476;48.072;11.970;2024-01-25T08:19:13;15.05;;;2.30;;
67063;SDS011;58476;48.072;11.970;2024-01-25T08:21:38;12.25;;;2.38;;
67063;SDS011;58476;48.072;11.970;2024-01-25T08:24:04;7.22;;;1.88;;
67063;SDS011;58476;48.072;11.970;2024-01-25T08:26:29;12.85;;;2.47;;
67063;SDS011;58476;48.072;11.970;2024-01-25T08:28:55;17.23;;;2.13;;
67063;SDS011;58476;48.072;11.970;2024-01-25T08:31:20;11.95;;;2.05;;
67063;SDS011;58476;48.072;11.970;2024-01-25T08:33:45;10.95;;;1.75;;
67063;SDS011;58476;48.072;11.970;2024-01-25T08:36:11;8.65;;;1.50;;
67063;SDS011;58476;48.072;11.970;2024-01-25T08:38:36;9.50;;;1.70;;
67063;SDS011;58476;48.072;11.970;2024-01-25T08:41:01;6.47;;;1.42;;
67063;SDS011;58476;48.072;11.970;2024-01-25T08:43:27;16.92;;;1.80;;
67063;SDS011;58476;48.072;11.970;2024-01-25T08:45:52;11.63;;;2.17;;
67063;SDS011;58476;48.072;11.970;2024-01-25T08:48:17;7.75;;;1.50;;
67063;SDS011;58476;48.072;11.970;2024-01-25T08:50:43;5.10;;;1.88;;
67063;SDS011;58476;48.072;11.970;2024-01-25T08:53:08;11.05;;;2.13;;
67063;SDS011;58476;48.072;11.970;2024-01-25T08:55:33;6.05;;;1.60;;
67063;SDS011;58476;48.072;11.970;2024-01-25T08:57:59;5.78;;;2.28;;
67063;SDS011;58476;48.072;11.970;2024-01-25T09:00:24;11.57;;;2.13;;
67063;SDS011;58476;48.072;11.970;2024-01-25T09:02:49;5.05;;;1.30;;
67063;SDS011;58476;48.072;11.970;2024-01-25T09:05:15;9.18;;;2.47;;
67063;SDS011;58476;48.072;11.970;2024-01-25T09:07:40;7.97;;;1.45;;
67063;SDS011;58476;48.072;11.970;2024-01-25T09:10:06;8.13;;;2.00;;
67063;SDS011;58476;48.072;11.970;2024-01-25T09:12:31;10.75;;;1.77;;
67063;SDS011;58476;48.072;11.970;2024-01-25T09:14:57;11.75;;;1.63;;
67063;SDS011;58476;48.072;11.970;2024-01-25T09:17:22;9.02;;;2.20;;
67063;SDS011;58476;48.072;11.970;2024-01-25T09:19:48;13.45;;;2.28;;
67063;SDS011;58476;48.072;11.970;2024-01-25T09:22:14;14.05;;;1.90;;
67063;SDS011;58476;48.072;11.970;2024-01-25T09:24:39;8.85;;;1.95;;
67063;SDS011;58476;48.072;11.970;2024-01-25T09:27:04;10.98;;;1.75;;
67063;SDS011;58476;48.072;11.970;2024-01-25T09:29:30;16.88;;;2.50;;
67063;SDS011;58476;48.072;11.970;2024-01-25T09:31:55;19.23;;;1.88;;
67063;SDS011;58476;48.072;11.970;2024-01-25T09:34:20;22.83;;;2.63;;
67063;SDS011;58476;48.072;11.970;2024-01-25T09:36:46;16.15;;;2.90;;
67063;SDS011;58476;48.072;11.970;2024-01-25T09:39:11;19.02;;;2.10;;
67063;SDS011;58476;48.072;11.970;2024-01-25T09:41:36;19.60;;;2.97;;
67063;SDS011;58476;48.072;11.970;2024-01-25T09:44:01;18.40;;;2.22;;
67063;SDS011;58476;48.072;11.970;2024-01-25T09:46:28;22.75;;;2.83;;
67063;SDS011;58476;48.072;11.970;2024-01-25T09:48:54;26.40;;;2.58;;
67063;SDS011;58476;48.072;11.970;2024-01-25T09:51:19;20.05;;;2.78;;
67063;SDS011;58476;48.072;11.970;2024-01-25T09:53:45;20.85;;;2.85;;
67063;SDS011;58476;48.072;11.970;2024-01-25T09:56:14;21.42;;;2.95;;
67063;SDS011;58476;48.072;11.970;2024-01-25T09:58:42;9.75;;;2.15;;
67063;SDS011;58476;48.072;11.970;2024-01-25T10:01:09;21.45;;;2.63;;
67063;SDS011;58476;48.072;11.970;2024-01-25T10:03:35;19.38;;;2.90;;
67063;SDS011;58476;48.072;11.970;2024-01-25T10:06:01;19.02;;;2.08;;
67063;SDS011;58476;48.072;11.970;2024-01-25T10:08:26;17.00;;;2.30;;
67063;SDS011;58476;48.072;11.970;2024-01-25T10:10:52;12.32;;;1.77;;
67063;SDS011;58476;48.072;11.970;2024-01-25T10:13:17;15.18;;;2.20;;
67063;SDS011;58476;48.072;11.970;2024-01-25T10:15:42;14.32;;;2.28;;
67063;SDS011;58476;48.072;11.970;2024-01-25T10:18:08;12.93;;;2.45;;
67063;SDS011;58476;48.072;11.970;2024-01-25T10:20:33;28.23;;;4.35;;
67063;SDS011;58476;48.072;11.970;2024-01-25T10:22:59;20.88;;;3.63;;
67063;SDS011;58476;48.072;11.970;2024-01-25T10:25:24;16.45;;;2.40;;
67063;SDS011;58476;48.072;11.970;2024-01-25T10:27:49;16.73;;;2.08;;
67063;SDS011;58476;48.072;11.970;2024-01-25T10:30:15;14.23;;;2.25;;
67063;SDS011;58476;48.072;11.970;2024-01-25T10:32:41;21.10;;;2.50;;
67063;SDS011;58476;48.072;11.970;2024-01-25T10:35:06;14.23;;;2.05;;
67063;SDS011;58476;48.072;11.970;2024-01-25T10:37:33;18.30;;;2.50;;
67063;SDS011;58476;48.072;11.970;2024-01-25T10:39:59;12.43;;;2.40;;
67063;SDS011;58476;48.072;11.970;2024-01-25T10:42:26;8.10;;;2.05;;
67063;SDS011;58476;48.072;11.970;2024-01-25T10:44:51;13.90;;;2.03;;
67063;SDS011;58476;48.072;11.970;2024-01-25T10:47:16;13.43;;;2.10;;
67063;SDS011;58476;48.072;11.970;2024-01-25T10:49:42;12.15;;;1.90;;
67063;SDS011;58476;48.072;11.970;2024-01-25T10:52:11;12.98;;;2.05;;
67063;SDS011;58476;48.072;11.970;2024-01-25T10:54:37;12.20;;;2.33;;
67063;SDS011;58476;48.072;11.970;2024-01-25T10:57:02;10.77;;;2.58;;
67063;SDS011;58476;48.072;11.970;2024-01-25T10:59:29;10.50;;;2.17;;
67063;SDS011;58476;48.072;11.970;2024-01-25T11:01:55;12.90;;;2.05;;
67063;SDS011;58476;48.072;11.970;2024-01-25T11:04:20;9.13;;;2.40;;
67063;SDS011;58476;48.072;11.970;2024-01-25T11:06:46;13.48;;;2.10;;
67063;SDS011;58476;48.072;11.970;2024-01-25T11:09:18;10.93;;;2.22;;
67063;SDS011;58476;48.072;11.970;2024-01-25T11:11:48;10.10;;;1.90;;
67063;SDS011;58476;48.072;11.970;2024-01-25T11:14:14;9.85;;;2.10;;
67063;SDS011;58476;48.072;11.970;2024-01-25T11:16:40;10.65;;;1.85;;
67063;SDS011;58476;48.072;11.970;2024-01-25T11:19:05;9.48;;;1.80;;
67063;SDS011;58476;48.072;11.970;2024-01-25T11:21:41;7.72;;;2.00;;
67063;SDS011;58476;48.072;11.970;2024-01-25T11:26:48;9.52;;;2.47;;
67063;SDS011;58476;48.072;11.970;2024-01-25T11:29:17;12.57;;;1.92;;
67063;SDS011;58476;48.072;11.970;2024-01-25T11:31:46;9.70;;;1.90;;
67063;SDS011;58476;48.072;11.970;2024-01-25T11:34:13;7.25;;;1.70;;
67063;SDS011;58476;48.072;11.970;2024-01-25T11:36:39;11.77;;;2.53;;
67063;SDS011;58476;48.072;11.970;2024-01-25T11:39:04;11.45;;;2.10;;
67063;SDS011;58476;48.072;11.970;2024-01-25T11:41:30;8.05;;;2.03;;
67063;SDS011;58476;48.072;11.970;2024-01-25T11:43:56;7.90;;;2.13;;
67063;SDS011;58476;48.072;11.970;2024-01-25T11:46:21;9.73;;;2.08;;
67063;SDS011;58476;48.072;11.970;2024-01-25T11:48:47;7.22;;;1.80;;
67063;SDS011;58476;48.072;11.970;2024-01-25T11:51:12;7.45;;;1.58;;
67063;SDS011;58476;48.072;11.970;2024-01-25T11:53:38;12.85;;;2.50;;
67063;SDS011;58476;48.072;11.970;2024-01-25T11:56:04;10.52;;;1.70;;
67063;SDS011;58476;48.072;11.970;2024-01-25T11:58:32;5.80;;;1.80;;
67063;SDS011;58476;48.072;11.970;2024-01-25T12:00:57;6.40;;;1.52;;
67063;SDS011;58476;48.072;11.970;2024-01-25T12:03:23;5.57;;;1.88;;
67063;SDS011;58476;48.072;11.970;2024-01-25T12:05:49;8.00;;;1.80;;
67063;SDS011;58476;48.072;11.970;2024-01-25T12:08:14;4.88;;;1.85;;
67063;SDS011;58476;48.072;11.970;2024-01-25T12:10:39;7.97;;;2.33;;
67063;SDS011;58476;48.072;11.970;2024-01-25T12:13:07;10.52;;;1.75;;
67063;SDS011;58476;48.072;11.970;2024-01-25T12:15:33;7.20;;;1.50;;
67063;SDS011;58476;48.072;11.970;2024-01-25T12:17:59;3.90;;;1.48;;
67063;SDS011;58476;48.072;11.970;2024-01-25T12:20:24;5.20;;;1.52;;
67063;SDS011;58476;48.072;11.970;2024-01-25T12:22:51;6.32;;;1.90;;
67063;SDS011;58476;48.072;11.970;2024-01-25T12:25:16;7.47;;;1.60;;
67063;SDS011;58476;48.072;11.970;2024-01-25T12:27:42;9.68;;;1.70;;
67063;SDS011;58476;48.072;11.970;2024-01-25T12:30:07;7.70;;;1.83;;
67063;SDS011;58476;48.072;11.970;2024-01-25T12:32:33;9.52;;;1.83;;
67063;SDS011;58476;48.072;11.970;2024-01-25T12:34:59;7.93;;;2.05;;
67063;SDS011;58476;48.072;11.970;2024-01-25T12:37:25;12.13;;;1.88;;
67063;SDS011;58476;48.072;11.970;2024-01-25T12:39:51;10.00;;;1.75;;
67063;SDS011;58476;48.072;11.970;2024-01-25T12:42:17;6.68;;;1.67;;
67063;SDS011;58476;48.072;11.970;2024-01-25T12:44:46;7.38;;;1.92;;
67063;SDS011;58476;48.072;11.970;2024-01-25T12:47:12;7.65;;;1.90;;
67063;SDS011;58476;48.072;11.970;2024-01-25T12:49:39;8.75;;;2.42;;
67063;SDS011;58476;48.072;11.970;2024-01-25T12:52:11;8.30;;;1.60;;
67063;SDS011;58476;48.072;11.970;2024-01-25T12:54:38;9.35;;;1.90;;
67063;SDS011;58476;48.072;11.970;2024-01-25T12:57:04;5.55;;;1.30;;
67063;SDS011;58476;48.072;11.970;2024-01-25T12:59:30;4.45;;;1.60;;
67063;SDS011;58476;48.072;11.970;2024-01-25T13:01:56;6.38;;;1.73;;
67063;SDS011;58476;48.072;11.970;2024-01-25T13:04:21;5.40;;;1.65;;
67063;SDS011;58476;48.072;11.970;2024-01-25T13:06:47;4.90;;;1.67;;
67063;SDS011;58476;48.072;11.970;2024-01-25T13:09:12;5.88;;;1.50;;
67063;SDS011;58476;48.072;11.970;2024-01-25T13:11:37;9.65;;;1.58;;
67063;SDS011;58476;48.072;11.970;2024-01-25T13:14:03;6.13;;;1.40;;
67063;SDS011;58476;48.072;11.970;2024-01-25T13:16:28;8.73;;;1.70;;
67063;SDS011;58476;48.072;11.970;2024-01-25T13:18:53;4.57;;;1.30;;
67063;SDS011;58476;48.072;11.970;2024-01-25T13:21:19;4.95;;;1.40;;
67063;SDS011;58476;48.072;11.970;2024-01-25T13:23:44;6.95;;;1.80;;
67063;SDS011;58476;48.072;11.970;2024-01-25T13:26:09;9.95;;;1.60;;
67063;SDS011;58476;48.072;11.970;2024-01-25T13:28:34;6.72;;;1.75;;
67063;SDS011;58476;48.072;11.970;2024-01-25T13:31:00;11.32;;;2.33;;
67063;SDS011;58476;48.072;11.970;2024-01-25T13:33:25;8.20;;;1.73;;
67063;SDS011;58476;48.072;11.970;2024-01-25T13:35:50;8.63;;;1.70;;
67063;SDS011;58476;48.072;11.970;2024-01-25T13:38:16;6.63;;;1.65;;
67063;SDS011;58476;48.072;11.970;2024-01-25T13:40:41;4.97;;;1.80;;
67063;SDS011;58476;48.072;11.970;2024-01-25T13:43:07;13.10;;;2.03;;
67063;SDS011;58476;48.072;11.970;2024-01-25T13:45:32;6.53;;;1.60;;
67063;SDS011;58476;48.072;11.970;2024-01-25T13:47:57;8.20;;;1.40;;
67063;SDS011;58476;48.072;11.970;2024-01-25T13:50:23;7.43;;;1.55;;
67063;SDS011;58476;48.072;11.970;2024-01-25T13:52:48;5.38;;;1.40;;
67063;SDS011;58476;48.072;11.970;2024-01-25T13:55:13;4.70;;;1.33;;
67063;SDS011;58476;48.072;11.970;2024-01-25T13:57:39;5.47;;;2.10;;
67063;SDS011;58476;48.072;11.970;2024-01-25T14:00:04;6.00;;;1.60;;
67063;SDS011;58476;48.072;11.970;2024-01-25T14:02:31;4.40;;;1.50;;
67063;SDS011;58476;48.072;11.970;2024-01-25T14:04:57;3.72;;;1.60;;
67063;SDS011;58476;48.072;11.970;2024-01-25T14:07:22;11.45;;;1.50;;
67063;SDS011;58476;48.072;11.970;2024-01-25T14:09:47;8.75;;;1.83;;
67063;SDS011;58476;48.072;11.970;2024-01-25T14:12:12;10.77;;;1.60;;
67063;SDS011;58476;48.072;11.970;2024-01-25T14:14:38;10.18;;;1.75;;
67063;SDS011;58476;48.072;11.970;2024-01-25T14:17:03;8.80;;;1.65;;
67063;SDS011;58476;48.072;11.970;2024-01-25T14:19:28;10.15;;;1.75;;
67063;SDS011;58476;48.072;11.970;2024-01-25T14:21:54;8.95;;;1.60;;
67063;SDS011;58476;48.072;11.970;2024-01-25T14:24:19;6.55;;;1.70;;